»·PEaware :: N782FL KSAN-L17

N782FL :: KSAN-L17

FLIGHT INFORMATION

Flight Status: Arrived
Operator: Privately registered:
United States
More flights under this callsign
Pilot: Luis B. (14232)
Aircraft: BEECH AIRCRAFT BARON
(BE58)
More flights by this aircraft type
Origin: KSAN San Diego Intl-Lindbergh
United States
Destination: L17 Taft-Kern Co
United States
More flights between these airports :: More routes between these airports
Route: +OCN V23 GMN TAFTO
File this flight plan on PilotEdge
Remarks:
Altitude:
(Current/Filed)
10,000ft
Speed:
(Current/Filed)
170kts
Departed: 06-Dec-17 08:31 AM
Arrived: 06-Dec-17 09:40 AM
Distance/Time
Traveled:
183nm/1:09
Distance/Time
To Go:
Arrived

Flight Plot

Page will automatically refresh every two minutes.

Flight plan parsing failed; only flown route is shown


Map Options




Map Legend


Flown Route
Filed Route
Departure Airport
Arrival Airport
Navaid (VOR, NDB)
Fix

Horizontal Profiles

Position Reports

Time Latitude Longitude Heading Altitude Ground
Speed
06-Dec-17 08:16 32.732021 -117.176229 194 28ft 0kts
06-Dec-17 08:17 32.732021 -117.176229 194 28ft 0kts
06-Dec-17 08:18 32.732021 -117.176229 193 28ft 0kts
06-Dec-17 08:19 32.732021 -117.176229 194 28ft 0kts
06-Dec-17 08:20 32.732021 -117.176229 194 28ft 0kts
06-Dec-17 08:21 32.732021 -117.176229 194 28ft 0kts
06-Dec-17 08:22 32.732021 -117.176229 194 28ft 0kts
06-Dec-17 08:23 32.732021 -117.176229 194 28ft 0kts
06-Dec-17 08:24 32.732021 -117.176229 194 28ft 0kts
06-Dec-17 08:25 32.732021 -117.176229 194 28ft 0kts
06-Dec-17 08:26 32.732021 -117.176229 194 28ft 0kts
06-Dec-17 08:27 32.732021 -117.176229 194 28ft 0kts
06-Dec-17 08:28 32.732021 -117.176229 194 28ft 0kts
06-Dec-17 08:29 32.732021 -117.176229 194 28ft 0kts
06-Dec-17 08:30 32.730947 -117.175511 138 26ft 4kts
06-Dec-17 08:31 32.730899 -117.175464 141 26ft 0kts
06-Dec-17 08:32 32.730899 -117.175464 141 26ft 0kts
06-Dec-17 08:33 32.730899 -117.175464 141 26ft 0kts
06-Dec-17 08:34 32.730899 -117.175464 141 26ft 0kts
06-Dec-17 08:35 32.730187 -117.175661 281 23ft 15kts
06-Dec-17 08:36 32.739311 -117.205518 316 789ft 141kts
06-Dec-17 08:37 32.771246 -117.234509 320 2042ft 171kts
06-Dec-17 08:38 32.811109 -117.273076 320 2027ft 204kts
06-Dec-17 08:39 32.855056 -117.316062 320 2013ft 204kts
06-Dec-17 08:40 32.900549 -117.344737 359 2691ft 174kts
06-Dec-17 08:41 32.944128 -117.354830 350 4085ft 151kts
06-Dec-17 08:42 32.983743 -117.363661 352 5411ft 142kts
06-Dec-17 08:43 33.024479 -117.372200 353 6029ft 167kts
06-Dec-17 08:44 33.073305 -117.382116 352 6018ft 182kts
06-Dec-17 08:45 33.117154 -117.391278 352 6005ft 185kts
06-Dec-17 08:46 33.165024 -117.401286 352 6004ft 185kts
06-Dec-17 08:47 33.215807 -117.411959 351 6007ft 185kts
06-Dec-17 08:48 33.259414 -117.440597 318 6010ft 188kts
06-Dec-17 08:49 33.296694 -117.484629 319 6010ft 189kts
06-Dec-17 08:50 33.334370 -117.529530 319 6009ft 192kts
06-Dec-17 08:51 33.370780 -117.573249 319 6019ft 180kts
06-Dec-17 08:52 33.400183 -117.608734 320 6995ft 169kts
06-Dec-17 08:53 33.433039 -117.648270 321 8121ft 166kts
06-Dec-17 08:54 33.463676 -117.685806 321 9181ft 163kts
06-Dec-17 08:55 33.495398 -117.724273 322 10015ft 173kts
06-Dec-17 08:56 33.532379 -117.768361 321 10010ft 193kts
06-Dec-17 08:57 33.570296 -117.812574 325 10007ft 187kts
06-Dec-17 08:58 33.608988 -117.854372 323 10008ft 187kts
06-Dec-17 08:59 33.640628 -117.890085 322 10010ft 187kts
06-Dec-17 09:01 33.684187 -117.940076 322 10011ft 186kts
06-Dec-17 09:01 33.715186 -117.975881 322 10013ft 185kts
06-Dec-17 09:03 33.758307 -118.025821 322 10015ft 184kts
06-Dec-17 09:04 33.790616 -118.072404 278 10021ft 196kts
06-Dec-17 09:04 33.800803 -118.124696 292 10017ft 193kts
06-Dec-17 09:05 33.816670 -118.186660 292 10019ft 194kts
06-Dec-17 09:06 33.832424 -118.248731 292 10022ft 194kts
06-Dec-17 09:07 33.849499 -118.309803 318 9999ft 187kts
06-Dec-17 09:08 33.896219 -118.319995 0 10018ft 172kts
06-Dec-17 09:09 33.943996 -118.324289 0 10016ft 173kts
06-Dec-17 09:11 33.998012 -118.337631 309 10016ft 190kts
06-Dec-17 09:11 34.018620 -118.385473 302 10014ft 194kts
06-Dec-17 09:12 34.043245 -118.443971 302 10015ft 196kts
06-Dec-17 09:13 34.072865 -118.496495 339 10026ft 183kts
06-Dec-17 09:14 34.118272 -118.520951 343 10020ft 183kts
06-Dec-17 09:15 34.165099 -118.544392 344 10020ft 182kts
06-Dec-17 09:16 34.211683 -118.567372 344 10021ft 179kts
06-Dec-17 09:17 34.257110 -118.589724 344 10023ft 178kts
06-Dec-17 09:18 34.302676 -118.612106 344 10030ft 177kts
06-Dec-17 09:19 34.348359 -118.634589 345 10036ft 177kts
06-Dec-17 09:20 34.392340 -118.656454 344 10036ft 177kts
06-Dec-17 09:21 34.437478 -118.680598 343 10035ft 178kts
06-Dec-17 09:22 34.482951 -118.703790 344 10033ft 178kts
06-Dec-17 09:23 34.529871 -118.727013 344 9909ft 179kts
06-Dec-17 09:24 34.575695 -118.749506 345 9927ft 178kts
06-Dec-17 09:25 34.621861 -118.772089 345 9965ft 179kts
06-Dec-17 09:26 34.668323 -118.794826 345 10003ft 182kts
06-Dec-17 09:27 34.715556 -118.817986 345 10036ft 184kts
06-Dec-17 09:28 34.763098 -118.841305 345 10035ft 185kts
06-Dec-17 09:29 34.810848 -118.864781 345 10030ft 184kts
06-Dec-17 09:30 34.844747 -118.908208 299 10022ft 200kts
06-Dec-17 09:31 34.878746 -118.958187 319 9978ft 192kts
06-Dec-17 09:32 34.917849 -119.009422 317 9121ft 215kts
06-Dec-17 09:33 34.958776 -119.063003 315 8236ft 217kts
06-Dec-17 09:34 34.998820 -119.115932 314 7327ft 199kts
06-Dec-17 09:35 35.034776 -119.163439 313 6313ft 187kts
06-Dec-17 09:36 35.069794 -119.209728 313 5295ft 185kts
06-Dec-17 09:37 35.103916 -119.254828 313 4313ft 180kts
06-Dec-17 09:38 35.133716 -119.294417 313 3072ft 139kts
06-Dec-17 09:39 35.152596 -119.331393 261 1383ft 144kts
06-Dec-17 09:40 35.145580 -119.374843 260 1109ft 105kts
06-Dec-17 09:41 35.143373 -119.415950 282 2581ft 130kts
06-Dec-17 09:42 35.126833 -119.443037 163 2075ft 123kts
06-Dec-17 09:43 35.123984 -119.410065 42 2002ft 119kts
06-Dec-17 09:44 35.145624 -119.417149 249 1246ft 110kts
06-Dec-17 09:45 35.140624 -119.444641 256 878ft 19kts
06-Dec-17 09:46 35.140195 -119.445271 42 878ft 0kts

Navigation Log

Ident Type
Flight plan parsing failed, navigation log unavailable